Huvudsida
METAR-TAF:

METAR-TAF

Flygplatser :

Monte Argentario, Italien

latitud: 42-23N, longitud: 011-10E, höjd: 630 m

Aktuellt väderrapport

Denna rapport gjordes för 1 timme och 15 minuter sedan, klockan 12:55 UTC
Stilla vind
Temperatur 30°C
Fuktighet 31%
Tryck 1019 hPa
Sikt 10 km eller mer
Inga moln under 1 500 m eller inga cumulonimbus

METAR: LIQO 241255Z 00000KT CAVOK 30/11 Q1019 RMK FEW FEW190 VAL NIL NC VIS MIN 9999

Tid: 16:10 (14:10 UTC)


TAF: saknas

Aktuella väderrapporter och prognoser från 4000 flygplatser (METAR- och TAF-rapporter).

De tillgängliga stationerna syns som gula och röda prickar på kartan.

För musen över prickarna för att se namnen på stationerna.

Klicka sedan för att få väderrapporter och prognoser.

För att ändra kartan: Klicka på de gröna knapparna med ett svart kors på för att zooma in; den gröna knappen med ett streck på för att zooma ut; eller på de gröna pilarna för angränsande kartor.


METAR-TAF: